createdAt,value
2022-10-18T00:01:11.334Z,17.14
2022-10-18T00:03:40.210Z,17.16
2022-10-18T00:06:09.061Z,17.21
2022-10-18T00:08:37.114Z,17.16
2022-10-18T00:11:04.833Z,17.08
2022-10-18T00:13:32.569Z,17.06
2022-10-18T00:16:02.508Z,17.02
2022-10-18T00:18:31.808Z,17.01
2022-10-18T00:21:00.806Z,16.94
2022-10-18T00:23:29.128Z,16.95
2022-10-18T00:26:03.736Z,17.00
2022-10-18T00:28:31.751Z,16.97
2022-10-18T00:30:59.425Z,16.96
2022-10-18T00:33:27.007Z,16.96
2022-10-18T00:35:55.894Z,16.96
2022-10-18T00:38:23.435Z,16.94
2022-10-18T00:40:50.916Z,16.90
2022-10-18T00:43:19.374Z,16.87
2022-10-18T00:45:46.903Z,16.64
2022-10-18T00:48:15.381Z,16.47
2022-10-18T00:50:43.669Z,16.64
2022-10-18T00:53:16.641Z,16.50
2022-10-18T00:55:44.515Z,16.51
2022-10-18T00:58:12.798Z,16.51
2022-10-18T01:00:40.824Z,16.57
2022-10-18T01:03:09.361Z,16.50
2022-10-18T01:05:38.497Z,16.55
2022-10-18T01:08:23.939Z,16.55
2022-10-18T01:10:59.043Z,16.60
2022-10-18T01:13:36.344Z,16.55
2022-10-18T01:16:12.527Z,16.52
2022-10-18T01:18:44.292Z,16.55
2022-10-18T01:21:19.161Z,16.54
2022-10-18T01:24:30.433Z,16.52
2022-10-18T01:27:22.335Z,16.48
2022-10-18T01:30:05.016Z,16.49
2022-10-18T01:32:36.189Z,16.50
2022-10-18T01:35:07.221Z,16.42
2022-10-18T01:37:36.321Z,16.55
2022-10-18T01:40:07.118Z,16.53
2022-10-18T01:42:35.359Z,16.56
2022-10-18T01:45:04.620Z,16.52
2022-10-18T01:47:34.058Z,16.54
2022-10-18T01:50:04.595Z,16.48
2022-10-18T01:52:32.752Z,16.50
2022-10-18T01:55:01.068Z,16.55
2022-10-18T01:57:33.391Z,16.58
2022-10-18T02:00:02.906Z,16.62
2022-10-18T02:02:42.535Z,16.62
2022-10-18T02:05:15.963Z,16.66
2022-10-18T02:07:55.331Z,16.58
2022-10-18T02:10:36.935Z,16.58
2022-10-18T02:13:04.658Z,16.51
2022-10-18T02:15:37.236Z,16.44
2022-10-18T02:18:09.662Z,16.42
2022-10-18T02:20:37.570Z,16.54
2022-10-18T02:23:05.897Z,16.62
2022-10-18T02:25:35.067Z,16.62
2022-10-18T02:28:02.707Z,16.64
2022-10-18T02:30:32.340Z,16.65
2022-10-18T02:33:03.369Z,16.55
2022-10-18T02:35:33.855Z,16.40
2022-10-18T02:38:01.443Z,16.42
2022-10-18T02:40:29.055Z,16.38
2022-10-18T02:42:58.141Z,16.38
2022-10-18T02:45:26.521Z,16.24
2022-10-18T02:47:54.309Z,16.15
2022-10-18T02:50:21.942Z,16.08
2022-10-18T02:52:50.824Z,16.10
2022-10-18T02:55:18.502Z,16.03
2022-10-18T02:57:46.138Z,16.00
2022-10-18T03:00:14.847Z,15.83
2022-10-18T03:02:42.409Z,15.86
2022-10-18T03:05:10.068Z,15.67
2022-10-18T03:07:37.627Z,15.76
2022-10-18T03:10:07.624Z,15.58
2022-10-18T03:12:35.151Z,15.47
2022-10-18T03:15:02.715Z,15.45
2022-10-18T03:17:30.628Z,15.44
2022-10-18T03:19:58.485Z,15.30
2022-10-18T03:24:56.362Z,15.30
2022-10-18T03:27:25.327Z,15.24
2022-10-18T03:29:52.864Z,15.33
2022-10-18T03:32:20.417Z,15.27
2022-10-18T03:34:47.916Z,15.34
2022-10-18T03:37:15.476Z,15.32
2022-10-18T03:39:43.012Z,15.38
2022-10-18T03:42:10.598Z,15.39
2022-10-18T03:44:39.591Z,15.40
2022-10-18T03:47:07.113Z,15.31
2022-10-18T03:49:35.480Z,15.34
2022-10-18T03:52:03.039Z,15.28
2022-10-18T03:54:30.673Z,15.24
2022-10-18T03:56:58.279Z,15.21
2022-10-18T03:59:25.834Z,15.29
2022-10-18T04:01:54.765Z,15.31
2022-10-18T04:04:22.479Z,15.29
2022-10-18T04:06:50.063Z,15.28
2022-10-18T04:09:17.752Z,15.34
2022-10-18T04:11:45.309Z,15.24
2022-10-18T04:14:12.830Z,15.26
2022-10-18T04:16:40.529Z,15.18
2022-10-18T04:19:09.657Z,15.21
2022-10-18T04:21:37.526Z,15.01
2022-10-18T04:24:05.855Z,14.97
2022-10-18T04:26:33.587Z,15.05
2022-10-18T04:29:01.376Z,15.10
2022-10-18T04:31:28.979Z,15.13
2022-10-18T04:33:56.704Z,15.17
2022-10-18T04:36:25.898Z,15.14
2022-10-18T04:38:53.553Z,15.08
2022-10-18T04:41:21.173Z,15.22
2022-10-18T04:43:48.853Z,15.16
2022-10-18T04:46:17.163Z,15.18
2022-10-18T04:48:45.068Z,15.17
2022-10-18T04:51:12.799Z,15.18
2022-10-18T04:53:42.077Z,15.30
2022-10-18T04:56:10.086Z,15.26
2022-10-18T04:58:37.659Z,15.15
2022-10-18T05:01:06.458Z,15.11
2022-10-18T05:03:34.287Z,15.08
2022-10-18T05:06:03.239Z,15.10
2022-10-18T05:08:31.504Z,15.10
2022-10-18T05:11:01.076Z,15.13
2022-10-18T05:13:28.864Z,15.12
2022-10-18T05:15:56.735Z,15.13
2022-10-18T05:18:24.404Z,15.16
2022-10-18T05:20:52.462Z,15.13
2022-10-18T05:23:20.130Z,15.16
2022-10-18T05:25:47.793Z,15.17
2022-10-18T05:31:06.823Z,15.17
2022-10-18T05:33:35.314Z,15.12
2022-10-18T05:36:02.964Z,15.13
2022-10-18T05:38:31.435Z,15.12
2022-10-18T05:40:59.532Z,15.09
2022-10-18T05:43:30.507Z,15.12
2022-10-18T05:45:58.644Z,15.12
2022-10-18T05:48:26.627Z,15.09
2022-10-18T05:50:54.506Z,15.10
2022-10-18T05:53:36.124Z,15.11
2022-10-18T05:56:05.021Z,15.17
2022-10-18T05:58:34.453Z,15.18
2022-10-18T06:01:02.622Z,15.13
2022-10-18T06:03:31.227Z,15.13
2022-10-18T06:06:02.189Z,15.18
2022-10-18T06:08:30.134Z,15.15
2022-10-18T06:10:57.742Z,15.15
2022-10-18T06:13:25.603Z,15.15
2022-10-18T06:15:58.241Z,15.14
2022-10-18T06:18:26.141Z,15.16
2022-10-18T06:20:57.889Z,15.20
2022-10-18T06:23:26.086Z,15.15
2022-10-18T06:25:53.646Z,15.19
2022-10-18T06:28:21.398Z,15.16
2022-10-18T06:30:49.117Z,15.10
2022-10-18T06:33:18.041Z,15.05
2022-10-18T06:35:55.308Z,14.99
2022-10-18T06:38:22.934Z,15.08
2022-10-18T06:40:50.926Z,15.12
2022-10-18T06:43:21.053Z,15.17
2022-10-18T06:45:49.346Z,15.23
2022-10-18T06:50:52.323Z,15.25
2022-10-18T06:53:20.036Z,15.31
2022-10-18T06:55:47.783Z,15.36
2022-10-18T06:58:15.678Z,15.36
2022-10-18T07:00:44.179Z,15.37
2022-10-18T07:03:11.888Z,15.37
2022-10-18T07:05:41.048Z,15.39
2022-10-18T07:08:08.638Z,15.48
2022-10-18T07:10:36.315Z,15.51
2022-10-18T07:13:27.309Z,15.51
2022-10-18T07:16:01.656Z,15.55
2022-10-18T07:18:29.291Z,15.55
2022-10-18T07:20:58.192Z,15.62
2022-10-18T07:23:25.727Z,15.65
2022-10-18T07:25:53.587Z,15.65
2022-10-18T07:28:21.247Z,15.69
2022-10-18T07:30:48.818Z,15.71
2022-10-18T07:33:16.404Z,15.73
2022-10-18T07:35:44.053Z,15.73
2022-10-18T07:38:13.053Z,15.77
2022-10-18T07:40:40.687Z,15.76
2022-10-18T07:43:10.279Z,15.92
2022-10-18T07:45:39.761Z,16.00
2022-10-18T07:48:07.895Z,16.05
2022-10-18T07:50:35.575Z,16.08
2022-10-18T07:53:03.331Z,16.12
2022-10-18T07:55:32.300Z,16.14
2022-10-18T07:58:01.245Z,16.27
2022-10-18T08:00:28.920Z,16.27
2022-10-18T08:02:56.929Z,16.32
2022-10-18T08:05:24.821Z,16.39
2022-10-18T08:07:52.474Z,16.47
2022-10-18T08:10:20.112Z,16.50
2022-10-18T08:12:49.708Z,16.50
2022-10-18T08:15:17.440Z,16.53
2022-10-18T08:17:45.207Z,16.67
2022-10-18T08:20:30.003Z,16.59
2022-10-18T08:23:00.464Z,16.57
2022-10-18T08:25:28.547Z,16.52
2022-10-18T08:27:57.612Z,16.57
2022-10-18T08:30:27.923Z,16.51
2022-10-18T08:32:55.560Z,16.50
2022-10-18T08:35:23.162Z,16.53
2022-10-18T08:37:51.237Z,16.55
2022-10-18T08:40:19.048Z,16.56
2022-10-18T08:42:57.926Z,16.58
2022-10-18T08:45:41.979Z,16.69
2022-10-18T08:48:17.685Z,16.64
2022-10-18T08:50:45.471Z,16.74
2022-10-18T08:53:17.847Z,16.62
2022-10-18T08:55:47.821Z,16.75
2022-10-18T08:58:18.892Z,16.55
2022-10-18T09:00:54.247Z,16.59
2022-10-18T09:03:30.840Z,16.65
2022-10-18T09:06:05.511Z,16.59
2022-10-18T09:08:45.021Z,16.74
2022-10-18T09:11:24.981Z,16.75
2022-10-18T09:14:08.105Z,16.72
2022-10-18T09:16:41.406Z,16.76
2022-10-18T09:19:16.020Z,16.81
2022-10-18T09:21:50.557Z,16.79
2022-10-18T09:24:23.412Z,16.76
2022-10-18T09:26:58.388Z,16.73
2022-10-18T09:29:39.335Z,16.95
2022-10-18T09:32:17.501Z,16.85
2022-10-18T09:34:48.860Z,16.84
2022-10-18T09:37:19.230Z,16.96
2022-10-18T09:39:48.270Z,16.82
2022-10-18T09:42:18.409Z,16.83
2022-10-18T09:44:49.994Z,16.88
2022-10-18T09:47:21.221Z,16.96
2022-10-18T09:49:52.521Z,17.06
2022-10-18T09:52:24.932Z,17.20
2022-10-18T09:54:55.380Z,17.36
2022-10-18T09:57:27.665Z,17.40
2022-10-18T09:59:55.470Z,17.41
2022-10-18T10:02:25.017Z,17.41
2022-10-18T10:04:54.130Z,17.38
2022-10-18T10:07:28.583Z,17.46
2022-10-18T10:10:00.733Z,17.52
2022-10-18T10:12:31.274Z,17.55
2022-10-18T10:15:10.438Z,17.54
2022-10-18T10:17:39.403Z,17.60
2022-10-18T10:20:16.772Z,17.60
2022-10-18T10:22:47.506Z,17.57
2022-10-18T10:25:23.732Z,17.57
2022-10-18T10:27:51.674Z,17.63
2022-10-18T10:30:25.120Z,17.62
2022-10-18T10:32:55.971Z,17.64
2022-10-18T10:35:42.117Z,17.69
2022-10-18T10:38:24.820Z,17.90
2022-10-18T10:40:53.010Z,17.94
2022-10-18T10:43:40.073Z,17.91
2022-10-18T10:46:10.082Z,18.01
2022-10-18T10:48:49.208Z,17.93
2022-10-18T10:51:18.678Z,17.95
2022-10-18T10:53:51.942Z,18.05
2022-10-18T10:56:23.845Z,18.03
2022-10-18T10:58:52.261Z,18.00
2022-10-18T11:01:26.046Z,18.11
2022-10-18T11:03:57.827Z,18.19
2022-10-18T11:06:47.747Z,18.38
2022-10-18T11:09:37.282Z,18.59
2022-10-18T11:12:13.207Z,18.68
2022-10-18T11:14:44.170Z,18.65
2022-10-18T11:17:21.899Z,18.72
2022-10-18T11:20:13.291Z,18.88
2022-10-18T11:22:43.972Z,18.96
2022-10-18T11:25:14.652Z,18.75
2022-10-18T11:27:43.989Z,18.71
2022-10-18T11:30:33.954Z,18.71
2022-10-18T11:33:07.664Z,18.90
2022-10-18T11:35:42.482Z,18.80
2022-10-18T11:38:23.887Z,18.90
2022-10-18T11:41:00.939Z,18.90
2022-10-18T11:43:57.057Z,19.09
2022-10-18T11:46:29.337Z,19.22
2022-10-18T11:49:09.038Z,19.50
2022-10-18T11:52:03.583Z,19.41
2022-10-18T11:54:51.597Z,19.46
2022-10-18T11:57:32.047Z,19.44
2022-10-18T12:00:08.767Z,19.61
2022-10-18T12:02:53.271Z,19.68
2022-10-18T12:05:24.015Z,19.49
2022-10-18T12:07:58.082Z,19.33
2022-10-18T12:10:38.012Z,19.40
2022-10-18T12:13:18.555Z,19.30
2022-10-18T12:15:46.271Z,19.55
2022-10-18T12:18:17.350Z,19.27
2022-10-18T12:20:48.743Z,19.18
2022-10-18T12:23:20.522Z,19.18
2022-10-18T12:25:52.234Z,19.19
2022-10-18T12:28:27.345Z,19.20
2022-10-18T12:30:58.985Z,19.23
2022-10-18T12:33:29.363Z,19.11
2022-10-18T12:36:04.685Z,19.10
2022-10-18T12:38:34.729Z,18.99
2022-10-18T12:41:03.034Z,18.97
2022-10-18T12:43:36.424Z,18.80
2022-10-18T12:46:10.715Z,18.85
2022-10-18T12:48:42.995Z,18.82
2022-10-18T12:51:15.644Z,18.91
2022-10-18T12:53:46.063Z,19.13
2022-10-18T12:56:41.715Z,18.94
2022-10-18T12:59:40.860Z,19.13
2022-10-18T13:02:29.297Z,19.34
2022-10-18T13:07:43.309Z,19.02
2022-10-18T13:10:36.826Z,19.17
2022-10-18T13:13:46.330Z,19.08
2022-10-18T13:16:32.130Z,19.07
2022-10-18T13:19:03.360Z,18.89
2022-10-18T13:21:43.272Z,18.88
2022-10-18T13:24:26.051Z,18.81
2022-10-18T13:27:35.597Z,18.69
2022-10-18T13:30:17.911Z,18.66
2022-10-18T13:32:50.821Z,18.66
2022-10-18T13:35:52.898Z,18.68
2022-10-18T13:38:34.494Z,18.64
2022-10-18T13:41:03.331Z,18.63
2022-10-18T13:43:58.006Z,18.68
2022-10-18T13:46:26.647Z,18.62
2022-10-18T13:48:55.167Z,18.59
2022-10-18T13:51:38.150Z,18.69
2022-10-18T13:54:15.517Z,18.89
2022-10-18T13:56:53.308Z,18.93
2022-10-18T14:02:50.618Z,19.08
2022-10-18T14:05:26.115Z,19.03
2022-10-18T14:07:59.511Z,19.08
2022-10-18T14:10:57.475Z,18.94
2022-10-18T14:13:35.255Z,18.91
2022-10-18T14:16:07.812Z,18.92
2022-10-18T14:18:37.821Z,18.99
2022-10-18T14:21:14.062Z,18.93
2022-10-18T14:23:44.502Z,18.92
2022-10-18T14:26:15.422Z,18.94
2022-10-18T14:29:00.228Z,19.04
2022-10-18T14:31:29.771Z,19.02
2022-10-18T14:34:06.286Z,18.89
2022-10-18T14:36:47.586Z,18.89
2022-10-18T14:39:19.964Z,18.89
2022-10-18T14:41:52.144Z,18.84
2022-10-18T14:44:22.392Z,18.93
2022-10-18T14:46:53.507Z,18.86
2022-10-18T14:49:21.883Z,18.93
2022-10-18T14:51:52.648Z,18.84
2022-10-18T14:54:23.207Z,18.78
2022-10-18T14:56:52.864Z,18.82
2022-10-18T14:59:22.461Z,18.85
2022-10-18T15:01:57.225Z,18.89
2022-10-18T15:04:31.072Z,18.89
2022-10-18T15:06:59.844Z,18.60
2022-10-18T15:11:57.836Z,18.45
2022-10-18T15:14:27.533Z,18.31
2022-10-18T15:17:00.819Z,18.23
2022-10-18T15:19:31.238Z,18.24
2022-10-18T15:22:30.369Z,18.18
2022-10-18T15:25:07.560Z,18.25
2022-10-18T15:27:37.857Z,18.25
2022-10-18T15:30:09.096Z,18.17
2022-10-18T15:32:38.322Z,18.16
2022-10-18T15:35:13.540Z,18.22
2022-10-18T15:37:43.106Z,18.17
2022-10-18T15:40:32.358Z,18.12
2022-10-18T15:43:01.683Z,18.22
2022-10-18T15:45:32.491Z,18.16
2022-10-18T15:48:04.147Z,18.08
2022-10-18T15:50:42.116Z,18.05
2022-10-18T15:53:25.926Z,18.03
2022-10-18T15:55:55.499Z,18.03
2022-10-18T15:58:24.727Z,18.16
2022-10-18T16:00:54.363Z,18.03
2022-10-18T16:03:24.226Z,17.92
2022-10-18T16:05:54.805Z,17.90
2022-10-18T16:08:24.064Z,17.86
2022-10-18T16:10:51.934Z,17.86
2022-10-18T16:13:19.733Z,17.67
2022-10-18T16:15:47.430Z,17.48
2022-10-18T16:18:17.673Z,17.48
2022-10-18T16:20:47.158Z,17.43
2022-10-18T16:23:20.395Z,17.40
2022-10-18T16:25:48.340Z,17.28
2022-10-18T16:28:17.805Z,17.30
2022-10-18T16:30:48.599Z,17.15
2022-10-18T16:33:19.227Z,17.11
2022-10-18T16:35:50.559Z,16.95
2022-10-18T16:38:23.677Z,16.98
2022-10-18T16:40:51.208Z,16.92
2022-10-18T16:43:18.806Z,16.89
2022-10-18T16:45:46.631Z,16.77
2022-10-18T16:48:15.912Z,16.72
2022-10-18T16:50:43.783Z,16.63
2022-10-18T16:53:12.705Z,16.67
2022-10-18T16:55:41.635Z,16.79
2022-10-18T16:58:14.990Z,16.83
2022-10-18T17:00:42.589Z,16.65
2022-10-18T17:03:10.451Z,16.52
2022-10-18T17:05:38.093Z,16.51
2022-10-18T17:08:05.915Z,16.42
2022-10-18T17:10:34.978Z,16.36
2022-10-18T17:13:02.767Z,16.38
2022-10-18T17:15:32.889Z,16.42
2022-10-18T17:18:03.859Z,16.36
2022-10-18T17:20:31.588Z,16.28
2022-10-18T17:22:59.254Z,16.27
2022-10-18T17:25:26.957Z,16.30
2022-10-18T17:27:56.007Z,16.38
2022-10-18T17:30:23.573Z,16.35
2022-10-18T17:32:51.557Z,16.28
2022-10-18T17:35:19.480Z,16.21
2022-10-18T17:37:48.838Z,16.14
2022-10-18T17:40:16.466Z,16.10
2022-10-18T17:42:44.021Z,16.05
2022-10-18T17:45:13.284Z,16.14
2022-10-18T17:47:40.868Z,16.05
2022-10-18T17:50:09.260Z,16.04
2022-10-18T17:52:37.242Z,16.00
2022-10-18T17:55:05.537Z,16.00
2022-10-18T17:57:33.491Z,15.94
2022-10-18T18:00:03.171Z,15.92
2022-10-18T18:02:32.542Z,15.92
2022-10-18T18:05:00.885Z,15.94
2022-10-18T18:07:28.592Z,15.88
2022-10-18T18:09:56.184Z,15.85
2022-10-18T18:12:23.918Z,15.88
2022-10-18T18:14:51.564Z,15.87
2022-10-18T18:17:28.622Z,15.85
2022-10-18T18:20:03.217Z,15.73
2022-10-18T18:22:31.144Z,15.70
2022-10-18T18:24:59.035Z,15.57
2022-10-18T18:27:26.774Z,15.48
2022-10-18T18:29:54.330Z,15.47
2022-10-18T18:32:21.957Z,15.49
2022-10-18T18:34:49.574Z,15.46
2022-10-18T18:37:18.430Z,15.47
2022-10-18T18:39:45.974Z,15.40
2022-10-18T18:42:13.567Z,15.25
2022-10-18T18:44:45.743Z,15.28
2022-10-18T18:47:13.592Z,15.35
2022-10-18T18:49:41.198Z,15.31
2022-10-18T18:52:08.743Z,15.26
2022-10-18T18:54:37.655Z,15.26
2022-10-18T18:57:06.399Z,15.30
2022-10-18T18:59:34.068Z,15.18
2022-10-18T19:02:01.589Z,15.18
2022-10-18T19:04:30.023Z,15.29
2022-10-18T19:06:57.567Z,15.49
2022-10-18T19:09:27.087Z,15.44
2022-10-18T19:11:57.251Z,15.35
2022-10-18T19:14:26.002Z,15.43
2022-10-18T19:16:55.060Z,15.52
2022-10-18T19:19:24.002Z,15.60
2022-10-18T19:21:52.981Z,15.47
2022-10-18T19:24:20.961Z,15.42
2022-10-18T19:26:50.398Z,15.58
2022-10-18T19:29:21.636Z,15.52
2022-10-18T19:31:49.851Z,15.44
2022-10-18T19:34:18.322Z,15.32
2022-10-18T19:36:47.457Z,15.31
2022-10-18T19:39:18.200Z,15.35
2022-10-18T19:41:46.028Z,15.32
2022-10-18T19:44:13.653Z,15.40
2022-10-18T19:46:42.541Z,15.30
2022-10-18T19:49:10.493Z,15.23
2022-10-18T19:51:38.504Z,15.32
2022-10-18T19:54:06.136Z,15.29
2022-10-18T19:56:33.911Z,15.23
2022-10-18T19:59:01.565Z,15.25
2022-10-18T20:01:29.814Z,15.18
2022-10-18T20:03:58.877Z,15.23
2022-10-18T20:06:26.912Z,15.22
2022-10-18T20:08:54.500Z,15.18
2022-10-18T20:11:24.028Z,15.13
2022-10-18T20:13:51.682Z,15.10
2022-10-18T20:16:25.453Z,15.00
2022-10-18T20:18:56.435Z,15.03
2022-10-18T20:21:26.029Z,15.00
2022-10-18T20:23:53.831Z,14.94
2022-10-18T20:26:21.756Z,14.82
2022-10-18T20:28:55.835Z,14.72
2022-10-18T20:31:25.234Z,14.81
2022-10-18T20:33:55.308Z,14.75
2022-10-18T20:36:23.045Z,14.73
2022-10-18T20:38:53.166Z,14.78
2022-10-18T20:41:23.202Z,14.74
2022-10-18T20:43:54.478Z,14.64
2022-10-18T20:46:22.652Z,14.60
2022-10-18T20:48:50.843Z,14.61
2022-10-18T20:51:18.878Z,14.56
2022-10-18T20:53:46.661Z,14.52
2022-10-18T20:56:16.701Z,14.47
2022-10-18T20:58:45.438Z,14.41
2022-10-18T21:01:14.944Z,14.38
2022-10-18T21:03:44.258Z,14.35
2022-10-18T21:06:13.802Z,14.29
2022-10-18T21:08:41.724Z,14.29
2022-10-18T21:11:09.820Z,14.19
2022-10-18T21:13:40.677Z,14.19
2022-10-18T21:16:08.848Z,14.27
2022-10-18T21:18:37.555Z,14.13
2022-10-18T21:21:09.435Z,14.08
2022-10-18T21:23:37.160Z,14.07
2022-10-18T21:26:04.835Z,14.03
2022-10-18T21:28:32.487Z,14.00
2022-10-18T21:31:10.739Z,13.92
2022-10-18T21:33:40.541Z,13.91
2022-10-18T21:36:08.509Z,13.95
2022-10-18T21:38:36.225Z,14.04
2022-10-18T21:41:09.768Z,13.97
2022-10-18T21:43:37.469Z,13.97
2022-10-18T21:46:05.064Z,14.05
2022-10-18T21:48:34.271Z,14.10
2022-10-18T21:51:04.031Z,14.06
2022-10-18T21:53:31.690Z,14.05
2022-10-18T21:56:07.500Z,14.02
2022-10-18T21:58:35.671Z,14.06
2022-10-18T22:01:03.468Z,14.02
2022-10-18T22:03:37.227Z,13.99
2022-10-18T22:06:14.407Z,13.89
2022-10-18T22:08:43.047Z,14.01
2022-10-18T22:11:11.235Z,13.96
2022-10-18T22:13:39.017Z,13.92
2022-10-18T22:16:08.631Z,13.92
2022-10-18T22:18:37.988Z,13.85
2022-10-18T22:21:08.648Z,13.90
2022-10-18T22:23:38.934Z,13.88
2022-10-18T22:26:09.099Z,13.74
2022-10-18T22:28:37.742Z,13.74
2022-10-18T22:31:06.519Z,13.70
2022-10-18T22:33:34.132Z,13.72
2022-10-18T22:36:03.611Z,13.77
2022-10-18T22:38:34.329Z,13.80
2022-10-18T22:41:05.081Z,13.75
2022-10-18T22:43:36.659Z,13.79
2022-10-18T22:46:04.950Z,13.84
2022-10-18T22:48:33.675Z,13.96
2022-10-18T22:51:03.178Z,13.87
2022-10-18T22:53:31.040Z,13.76
2022-10-18T22:56:01.885Z,13.72
2022-10-18T22:58:30.209Z,13.77
2022-10-18T23:01:02.622Z,13.81
2022-10-18T23:03:30.540Z,13.84
2022-10-18T23:05:58.460Z,13.86
2022-10-18T23:08:28.129Z,13.84
2022-10-18T23:10:58.798Z,13.88
2022-10-18T23:13:27.784Z,13.94
2022-10-18T23:16:04.455Z,13.91
2022-10-18T23:18:33.637Z,13.89
2022-10-18T23:21:03.196Z,13.94
2022-10-18T23:23:35.650Z,13.92
2022-10-18T23:26:05.233Z,13.85
2022-10-18T23:28:35.197Z,13.82
2022-10-18T23:31:07.994Z,13.76
2022-10-18T23:33:36.243Z,13.72
2022-10-18T23:36:05.304Z,13.76
2022-10-18T23:38:35.543Z,13.65
2022-10-18T23:41:04.072Z,13.67
2022-10-18T23:43:32.493Z,13.67
2022-10-18T23:46:00.812Z,13.67
2022-10-18T23:48:36.256Z,13.65
2022-10-18T23:51:05.073Z,13.61
2022-10-18T23:53:35.311Z,13.56
2022-10-18T23:56:05.392Z,13.58
2022-10-18T23:58:34.839Z,13.60
